Time;durP1;ratioP1;P1;durP2;ratioP2;P2;SDS_P1;SDS_P2;PMS_P1;PMS_P2;Temp;Humidity;BMP_temperature;BMP_pressure;BME280_temperature;BME280_humidity;BME280_pressure;Samples;Min_cycle;Max_cycle;Signal;HPM_P1;HPM_P2
2023/07/07 00:02:01;;;;;;;8.50;5.00;;;11.40;99.90;;;;;;5072880;28;20197;-69
2023/07/07 00:04:48;;;;;;;8.80;4.90;;;11.40;99.90;;;;;;5072847;28;20278;-70
2023/07/07 00:07:35;;;;;;;8.60;4.97;;;11.40;99.90;;;;;;5072550;28;20208;-69
2023/07/07 00:10:22;;;;;;;10.57;5.17;;;11.30;99.90;;;;;;5072395;28;20250;-69
2023/07/07 00:13:10;;;;;;;9.63;5.27;;;11.30;99.90;;;;;;5072965;28;20196;-69
2023/07/07 00:16:00;;;;;;;8.17;4.93;;;11.30;99.90;;;;;;5072377;28;20320;-70
2023/07/07 00:18:49;;;;;;;14.27;5.30;;;11.30;99.90;;;;;;5072330;28;20682;-69
2023/07/07 00:21:36;;;;;;;10.23;5.07;;;11.30;99.90;;;;;;5072263;28;20200;-69
2023/07/07 00:24:24;;;;;;;12.93;5.10;;;11.30;99.90;;;;;;5072350;28;20205;-69
2023/07/07 00:27:12;;;;;;;10.03;4.87;;;11.20;99.90;;;;;;5072435;28;20273;-69
2023/07/07 00:29:59;;;;;;;15.37;4.77;;;11.20;99.90;;;;;;5072197;28;20214;-69
2023/07/07 00:32:46;;;;;;;8.03;4.60;;;11.10;99.90;;;;;;5072733;28;20236;-70
2023/07/07 00:35:35;;;;;;;12.57;5.40;;;11.20;99.90;;;;;;5072391;28;20215;-69
2023/07/07 00:38:22;;;;;;;9.17;5.07;;;11.20;99.90;;;;;;5072265;28;20713;-69
2023/07/07 00:41:09;;;;;;;15.17;5.43;;;11.20;99.90;;;;;;5072596;28;20253;-69
2023/07/07 00:44:04;;;;;;;8.37;4.83;;;11.20;99.90;;;;;;5072867;28;20212;-69
2023/07/07 00:46:51;;;;;;;9.63;5.20;;;11.20;99.90;;;;;;5063239;28;20193;-69
2023/07/07 00:49:39;;;;;;;9.30;4.87;;;11.20;99.90;;;;;;5052541;28;20257;-70
2023/07/07 00:52:28;;;;;;;7.97;4.50;;;11.20;99.90;;;;;;5052468;28;20204;-69
2023/07/07 00:55:18;;;;;;;11.60;5.20;;;11.20;99.90;;;;;;5052368;28;20199;-69
2023/07/07 00:58:07;;;;;;;8.27;4.73;;;11.10;99.90;;;;;;5052323;28;20197;-69
2023/07/07 01:00:57;;;;;;;11.50;4.77;;;11.10;99.90;;;;;;5052543;28;20204;-69
2023/07/07 01:03:46;;;;;;;10.37;4.87;;;11.10;99.90;;;;;;5052656;28;20198;-69
2023/07/07 01:06:35;;;;;;;10.23;4.87;;;11.10;99.90;;;;;;5052650;28;20527;-69
2023/07/07 01:09:23;;;;;;;8.73;5.13;;;11.10;99.90;;;;;;5052461;28;20209;-69
2023/07/07 01:12:11;;;;;;;9.13;4.80;;;11.10;99.90;;;;;;5052464;28;20210;-70
2023/07/07 01:14:58;;;;;;;12.17;5.37;;;11.10;99.90;;;;;;5052539;28;20206;-69
2023/07/07 01:17:52;;;;;;;7.60;4.70;;;11.10;99.90;;;;;;5052418;28;20592;-69
2023/07/07 01:20:41;;;;;;;11.73;5.33;;;11.00;99.90;;;;;;5052173;28;20212;-69
2023/07/07 01:23:53;;;;;;;6.97;4.83;;;11.10;99.90;;;;;;5052118;28;20199;-70
2023/07/07 01:26:56;;;;;;;11.10;4.93;;;11.00;99.90;;;;;;5052411;28;20572;-70
2023/07/07 01:30:21;;;;;;;11.80;4.87;;;11.00;99.90;;;;;;5052376;28;20211;-69
2023/07/07 01:33:11;;;;;;;12.90;5.70;;;11.00;99.90;;;;;;5048259;28;20235;-69
2023/07/07 01:35:58;;;;;;;9.07;5.40;;;11.00;99.90;;;;;;5051979;28;20273;-69
2023/07/07 01:38:46;;;;;;;8.93;5.10;;;11.00;99.90;;;;;;5051945;28;20213;-70
2023/07/07 01:41:37;;;;;;;13.33;6.03;;;11.00;99.90;;;;;;5051939;28;20241;-70
2023/07/07 01:44:27;;;;;;;12.10;6.10;;;11.10;99.90;;;;;;5051921;28;20196;-70
2023/07/07 01:47:15;;;;;;;14.40;6.47;;;11.20;99.90;;;;;;5063575;28;20199;-70
2023/07/07 01:50:06;;;;;;;11.40;6.27;;;11.30;99.90;;;;;;5071102;28;20314;-70
2023/07/07 01:52:54;;;;;;;14.37;6.47;;;11.30;99.90;;;;;;5070179;28;20207;-70
2023/07/07 01:55:43;;;;;;;11.93;6.57;;;11.40;99.90;;;;;;5071623;28;20575;-70
2023/07/07 01:58:31;;;;;;;11.40;6.90;;;11.50;99.90;;;;;;5071487;28;20570;-70
2023/07/07 02:01:18;;;;;;;11.57;6.13;;;11.50;99.90;;;;;;5071087;28;20288;-70
2023/07/07 02:04:05;;;;;;;10.90;5.57;;;11.70;99.90;;;;;;5071864;28;20198;-70
2023/07/07 02:06:54;;;;;;;12.13;5.57;;;11.70;99.90;;;;;;5071624;28;20197;-70
2023/07/07 02:09:41;;;;;;;12.47;5.50;;;11.70;99.90;;;;;;5071396;28;20213;-70
2023/07/07 02:12:28;;;;;;;9.63;4.67;;;11.70;99.90;;;;;;5071291;28;20203;-70
2023/07/07 02:15:16;;;;;;;13.10;4.33;;;11.60;99.90;;;;;;5071211;28;20212;-69
2023/07/07 02:18:03;;;;;;;9.93;5.07;;;11.50;99.90;;;;;;5073512;28;20346;-69
2023/07/07 02:20:50;;;;;;;7.57;4.50;;;11.40;99.90;;;;;;5075270;28;20207;-70
2023/07/07 02:23:39;;;;;;;10.90;5.03;;;11.40;99.90;;;;;;5074645;28;20212;-69
2023/07/07 02:26:26;;;;;;;10.67;5.27;;;11.30;99.90;;;;;;5074554;28;20560;-70
2023/07/07 02:29:13;;;;;;;10.37;5.60;;;11.20;99.90;;;;;;5074505;28;20194;-71
2023/07/07 02:32:00;;;;;;;8.00;5.20;;;11.20;99.90;;;;;;5074460;28;20614;-70
2023/07/07 02:34:48;;;;;;;10.53;5.00;;;11.10;99.90;;;;;;5074457;28;20209;-70
2023/07/07 02:37:35;;;;;;;11.63;5.13;;;11.10;99.90;;;;;;5074670;28;20245;-71
2023/07/07 02:40:24;;;;;;;10.47;5.57;;;11.10;99.90;;;;;;5074378;28;20241;-71
2023/07/07 02:43:11;;;;;;;15.77;5.90;;;11.10;99.90;;;;;;5074742;28;20208;-71
2023/07/07 02:45:58;;;;;;;9.40;5.30;;;11.10;99.90;;;;;;5073718;28;20665;-71
2023/07/07 02:48:45;;;;;;;11.67;5.90;;;11.10;99.90;;;;;;5053846;28;20227;-71
2023/07/07 02:51:33;;;;;;;8.33;5.57;;;11.00;99.90;;;;;;5054511;28;20204;-71
2023/07/07 02:54:20;;;;;;;13.30;5.80;;;11.00;99.90;;;;;;5054543;28;20197;-70
2023/07/07 02:57:09;;;;;;;9.77;5.27;;;11.00;99.90;;;;;;5054647;28;20213;-70
2023/07/07 02:59:56;;;;;;;11.70;5.23;;;11.00;99.90;;;;;;5054457;28;20200;-71
2023/07/07 03:02:43;;;;;;;11.93;5.33;;;11.00;99.90;;;;;;5054406;28;20208;-71
2023/07/07 03:05:31;;;;;;;8.43;5.33;;;11.00;99.90;;;;;;5054288;28;20195;-70
2023/07/07 03:08:18;;;;;;;15.80;5.90;;;11.00;99.90;;;;;;5054329;28;20712;-70
2023/07/07 03:11:06;;;;;;;8.73;5.50;;;11.00;99.90;;;;;;5054305;28;20234;-70
2023/07/07 03:13:54;;;;;;;13.20;5.70;;;11.00;99.90;;;;;;5054217;28;20259;-71
2023/07/07 03:16:47;;;;;;;12.40;5.47;;;11.10;99.90;;;;;;5054174;28;20300;-71
2023/07/07 03:19:34;;;;;;;11.13;5.10;;;11.10;99.90;;;;;;5054066;28;20201;-71
2023/07/07 03:22:21;;;;;;;10.90;5.43;;;11.10;99.90;;;;;;5054044;28;20203;-71
2023/07/07 03:25:09;;;;;;;12.73;5.47;;;11.10;99.90;;;;;;5054308;28;20204;-71
2023/07/07 03:27:56;;;;;;;10.33;4.97;;;11.20;99.90;;;;;;5053424;28;20212;-70
2023/07/07 03:30:44;;;;;;;12.00;5.07;;;11.20;99.90;;;;;;5053856;28;20203;-71
2023/07/07 03:33:32;;;;;;;9.73;4.93;;;11.20;99.90;;;;;;5053755;28;20210;-71
2023/07/07 03:36:21;;;;;;;13.50;5.37;;;11.30;99.90;;;;;;5053730;28;20208;-71
2023/07/07 03:39:08;;;;;;;8.27;5.40;;;11.30;99.90;;;;;;5053621;28;20385;-70
2023/07/07 03:41:55;;;;;;;11.40;4.97;;;11.40;99.90;;;;;;5053639;28;20762;-71
2023/07/07 03:44:42;;;;;;;10.50;5.53;;;11.40;99.90;;;;;;5053691;28;20251;-71
2023/07/07 03:47:31;;;;;;;10.17;5.60;;;11.40;99.90;;;;;;5067149;28;20205;-71
2023/07/07 03:50:18;;;;;;;12.53;5.50;;;11.50;99.90;;;;;;5072715;28;20743;-71
2023/07/07 03:53:05;;;;;;;13.73;5.37;;;11.60;99.90;;;;;;5072960;28;20210;-71
2023/07/07 03:55:52;;;;;;;9.23;5.27;;;11.70;99.90;;;;;;5072921;28;20209;-71
2023/07/07 03:58:40;;;;;;;12.60;6.13;;;11.70;99.90;;;;;;5072609;28;20212;-71
2023/07/07 04:01:27;;;;;;;13.17;5.70;;;11.80;99.90;;;;;;5072514;28;20201;-71
2023/07/07 04:04:16;;;;;;;13.33;5.83;;;11.90;99.90;;;;;;5072692;28;20683;-71
2023/07/07 04:07:03;;;;;;;10.80;6.20;;;12.00;99.90;;;;;;5072597;28;20196;-71
2023/07/07 04:09:52;;;;;;;12.30;6.00;;;12.20;99.90;;;;;;5073100;28;20619;-71
2023/07/07 04:12:39;;;;;;;13.63;5.80;;;12.40;99.90;;;;;;5073110;28;20681;-71
2023/07/07 04:15:26;;;;;;;14.87;6.43;;;12.50;99.90;;;;;;5072348;28;20212;-71
2023/07/07 04:18:15;;;;;;;16.03;5.93;;;12.70;99.90;;;;;;5072352;28;20223;-71
2023/07/07 04:21:06;;;;;;;13.03;6.20;;;12.80;99.90;;;;;;5072435;28;20278;-71
2023/07/07 04:23:54;;;;;;;12.17;6.03;;;13.00;99.90;;;;;;5072395;28;20263;-71
2023/07/07 04:26:41;;;;;;;14.27;6.10;;;13.20;99.90;;;;;;5072246;28;20211;-72
2023/07/07 04:29:29;;;;;;;16.37;7.20;;;13.40;99.90;;;;;;5072203;28;20212;-71
2023/07/07 04:32:16;;;;;;;16.90;6.97;;;13.60;99.90;;;;;;5072232;28;20198;-71
2023/07/07 04:35:04;;;;;;;20.53;6.97;;;13.80;99.90;;;;;;5072083;28;20548;-71
2023/07/07 04:37:52;;;;;;;13.30;6.70;;;13.90;99.90;;;;;;5071927;28;20213;-71
2023/07/07 04:40:39;;;;;;;13.43;6.53;;;14.10;99.90;;;;;;5071401;28;20218;-71
2023/07/07 04:43:26;;;;;;;17.03;6.13;;;14.30;99.90;;;;;;5072523;28;20688;-71
2023/07/07 04:46:16;;;;;;;13.53;6.77;;;14.50;99.90;;;;;;5068555;28;20215;-71
2023/07/07 04:49:06;;;;;;;13.90;6.20;;;14.70;99.90;;;;;;5052412;28;20236;-71
2023/07/07 04:51:54;;;;;;;11.70;5.80;;;14.90;99.90;;;;;;5052485;28;20569;-71
2023/07/07 04:54:42;;;;;;;14.47;5.80;;;15.10;99.90;;;;;;5052436;28;20193;-71
2023/07/07 04:57:29;;;;;;;13.37;5.47;;;15.30;99.90;;;;;;5052256;28;20217;-71
2023/07/07 05:00:17;;;;;;;13.83;5.93;;;15.50;99.90;;;;;;5052453;28;20212;-71
2023/07/07 05:03:04;;;;;;;11.93;4.63;;;15.70;99.90;;;;;;5052349;28;20200;-71
2023/07/07 05:05:51;;;;;;;10.40;5.03;;;15.90;99.90;;;;;;5052338;28;20203;-71
2023/07/07 05:08:40;;;;;;;11.00;5.20;;;16.10;99.90;;;;;;5052306;28;20229;-71
2023/07/07 05:11:29;;;;;;;9.93;5.33;;;16.30;99.90;;;;;;5052173;28;20199;-71
2023/07/07 05:14:16;;;;;;;10.13;4.60;;;16.50;99.90;;;;;;5052222;28;20205;-71
2023/07/07 05:17:04;;;;;;;11.50;5.43;;;16.60;99.90;;;;;;5052158;28;20675;-71
2023/07/07 05:19:51;;;;;;;12.47;4.83;;;16.70;99.90;;;;;;5052244;28;20204;-71
2023/07/07 05:22:38;;;;;;;9.53;4.60;;;16.90;99.90;;;;;;5052494;28;20283;-71
2023/07/07 05:25:25;;;;;;;8.97;4.73;;;17.00;99.90;;;;;;5052019;28;20307;-71
2023/07/07 05:28:14;;;;;;;10.70;4.53;;;17.10;99.90;;;;;;5052158;28;20194;-71
2023/07/07 05:31:01;;;;;;;10.77;4.53;;;17.20;99.90;;;;;;5052082;28;20197;-71
2023/07/07 05:33:48;;;;;;;8.87;4.27;;;17.40;99.90;;;;;;5052145;28;20211;-71
2023/07/07 05:36:36;;;;;;;14.07;4.63;;;17.60;99.90;;;;;;5051434;28;20204;-71
2023/07/07 05:39:23;;;;;;;10.20;4.57;;;17.70;99.90;;;;;;5051897;28;20216;-71
2023/07/07 05:42:10;;;;;;;11.67;4.40;;;17.80;99.90;;;;;;5052023;28;20565;-71
2023/07/07 05:44:59;;;;;;;18.83;4.60;;;18.00;99.90;;;;;;5051956;28;20330;-71
2023/07/07 05:47:46;;;;;;;9.07;4.33;;;18.10;99.90;;;;;;5068007;28;20203;-71
2023/07/07 05:50:33;;;;;;;12.40;3.90;;;18.20;99.90;;;;;;5071691;28;20348;-71
2023/07/07 05:53:20;;;;;;;8.60;4.07;;;18.40;99.90;;;;;;5075329;28;20199;-71
2023/07/07 05:56:10;;;;;;;8.00;4.37;;;18.60;99.90;;;;;;5075697;28;20199;-71
2023/07/07 05:58:57;;;;;;;9.43;4.00;;;18.80;99.90;;;;;;5075074;28;20219;-71
2023/07/07 06:01:46;;;;;;;7.47;4.13;;;18.90;99.90;;;;;;5075035;28;20277;-71
2023/07/07 06:04:33;;;;;;;9.07;3.80;;;19.10;99.90;;;;;;5074949;28;20659;-71
2023/07/07 06:07:20;;;;;;;8.50;4.20;;;19.30;99.90;;;;;;5074861;28;20277;-71
2023/07/07 06:10:10;;;;;;;10.93;3.53;;;19.30;99.90;;;;;;5074764;28;20219;-71
2023/07/07 06:12:57;;;;;;;6.23;3.47;;;19.50;99.90;;;;;;5074750;28;20201;-71
2023/07/07 06:15:44;;;;;;;9.83;3.50;;;19.60;99.90;;;;;;5075350;28;20682;-71
2023/07/07 06:18:33;;;;;;;4.80;3.10;;;19.80;99.90;;;;;;5075297;28;20216;-71
2023/07/07 06:21:20;;;;;;;7.27;2.90;;;19.90;99.90;;;;;;5075127;28;20204;-71
2023/07/07 06:24:07;;;;;;;10.80;3.40;;;19.90;99.90;;;;;;5074648;28;20204;-71
2023/07/07 06:26:54;;;;;;;6.67;3.33;;;20.00;99.90;;;;;;5074612;28;20200;-71
2023/07/07 06:29:41;;;;;;;5.43;3.13;;;20.20;99.90;;;;;;5074536;28;20554;-71
2023/07/07 06:32:28;;;;;;;8.13;3.33;;;20.30;99.90;;;;;;5074563;28;20293;-71
2023/07/07 06:35:17;;;;;;;6.00;3.23;;;20.60;99.90;;;;;;5074944;28;20203;-71
2023/07/07 06:38:04;;;;;;;6.50;3.20;;;20.70;99.90;;;;;;5074221;28;20598;-71
2023/07/07 06:40:52;;;;;;;5.13;2.60;;;20.80;99.90;;;;;;5074219;28;20200;-71
2023/07/07 06:43:39;;;;;;;4.73;2.80;;;21.00;99.90;;;;;;5074843;28;20200;-71
2023/07/07 06:46:26;;;;;;;4.70;2.80;;;21.20;99.90;;;;;;5069016;28;20194;-71
2023/07/07 06:49:13;;;;;;;6.23;2.90;;;21.20;99.90;;;;;;5054352;28;20225;-71
2023/07/07 06:52:02;;;;;;;5.00;2.97;;;21.50;99.90;;;;;;5054711;28;20251;-71
2023/07/07 06:54:49;;;;;;;7.13;3.20;;;21.50;99.90;;;;;;5054576;28;20200;-71
2023/07/07 06:57:36;;;;;;;6.03;2.67;;;21.60;99.90;;;;;;5054430;28;20275;-71
2023/07/07 07:00:24;;;;;;;11.83;2.93;;;21.80;99.90;;;;;;5054546;28;20205;-71
2023/07/07 07:03:11;;;;;;;5.60;3.00;;;21.80;97.40;;;;;;5053554;28;20197;-70
2023/07/07 07:05:58;;;;;;;10.60;3.00;;;22.00;92.50;;;;;;5054340;28;20228;-71
2023/07/07 07:08:47;;;;;;;5.87;2.60;;;22.10;96.80;;;;;;5053843;28;20212;-71
2023/07/07 07:11:34;;;;;;;5.43;2.70;;;22.30;99.90;;;;;;5054196;28;20201;-71
2023/07/07 07:14:21;;;;;;;5.10;2.70;;;22.30;99.90;;;;;;5054200;28;20200;-72
2023/07/07 07:17:09;;;;;;;6.20;2.97;;;22.50;99.90;;;;;;5054124;28;20284;-71
2023/07/07 07:19:56;;;;;;;5.93;2.93;;;22.60;99.90;;;;;;5054088;28;20205;-72
2023/07/07 07:22:43;;;;;;;6.70;2.93;;;22.60;93.40;;;;;;5054095;28;20198;-72
2023/07/07 07:25:32;;;;;;;8.83;3.10;;;22.70;93.20;;;;;;5053855;28;20284;-72
2023/07/07 07:28:19;;;;;;;7.03;3.10;;;22.80;93.10;;;;;;5054041;28;20255;-72
2023/07/07 07:31:06;;;;;;;5.83;2.50;;;23.00;93.70;;;;;;5053989;28;20232;-71
2023/07/07 07:33:55;;;;;;;9.70;3.30;;;23.10;83.40;;;;;;5053871;28;20207;-71
2023/07/07 07:36:42;;;;;;;8.30;3.13;;;23.20;89.70;;;;;;5053835;28;20260;-71
2023/07/07 07:39:29;;;;;;;4.53;2.80;;;23.30;92.30;;;;;;5053537;28;20225;-71
2023/07/07 07:42:18;;;;;;;9.13;2.90;;;23.00;86.00;;;;;;5053761;28;20220;-72
2023/07/07 07:45:06;;;;;;;3.67;2.27;;;23.20;81.80;;;;;;5053638;28;20201;-72
2023/07/07 07:47:53;;;;;;;3.42;2.15;;;23.20;77.50;;;;;;5070464;28;20303;-72
2023/07/07 07:50:40;;;;;;;5.13;2.70;;;23.40;81.40;;;;;;5073175;28;20701;-70
2023/07/07 07:53:27;;;;;;;5.70;2.72;;;23.50;72.30;;;;;;5072814;28;20207;-71
2023/07/07 07:56:14;;;;;;;4.82;2.40;;;23.70;73.90;;;;;;5072938;28;20235;-71
2023/07/07 07:59:04;;;;;;;6.80;3.27;;;23.40;67.80;;;;;;5072662;28;20220;-71
2023/07/07 08:01:51;;;;;;;3.63;2.53;;;23.30;74.00;;;;;;5073333;28;20350;-71
2023/07/07 08:04:38;;;;;;;8.70;2.63;;;23.10;72.50;;;;;;5072621;28;20271;-71
2023/07/07 08:07:26;;;;;;;3.45;2.20;;;23.30;72.30;;;;;;5072807;28;20698;-71
2023/07/07 08:10:13;;;;;;;3.63;2.20;;;23.60;69.10;;;;;;5072916;28;20193;-72
2023/07/07 08:13:00;;;;;;;6.43;2.08;;;23.40;66.10;;;;;;5073054;28;20208;-71
2023/07/07 08:15:49;;;;;;;5.23;1.90;;;23.40;60.00;;;;;;5072954;28;20197;-71
2023/07/07 08:18:36;;;;;;;5.30;2.07;;;23.30;58.00;;;;;;5072952;28;20219;-71
2023/07/07 08:21:23;;;;;;;8.00;2.07;;;22.80;56.40;;;;;;5072305;28;20223;-71
2023/07/07 08:24:11;;;;;;;5.22;1.88;;;23.30;61.80;;;;;;5072336;28;20568;-71
2023/07/07 08:26:58;;;;;;;3.38;1.80;;;23.60;62.20;;;;;;5072847;28;20686;-72
2023/07/07 08:29:45;;;;;;;3.90;2.15;;;24.10;58.90;;;;;;5072214;28;20220;-71
2023/07/07 08:32:33;;;;;;;7.35;2.47;;;24.70;61.20;;;;;;5072691;28;20207;-71
2023/07/07 08:35:21;;;;;;;5.45;2.25;;;24.50;59.70;;;;;;5072125;28;20208;-71
2023/07/07 08:38:08;;;;;;;3.33;2.22;;;24.70;61.70;;;;;;5072626;28;20220;-71
2023/07/07 08:40:56;;;;;;;5.55;2.55;;;25.00;58.50;;;;;;5072624;28;20204;-72
2023/07/07 08:43:44;;;;;;;5.78;2.38;;;25.00;57.70;;;;;;5072033;28;20667;-71
2023/07/07 08:46:43;;;;;;;2.97;1.85;;;24.60;54.90;;;;;;5066791;28;20276;-72
2023/07/07 08:49:33;;;;;;;3.97;2.25;;;24.20;54.50;;;;;;5052228;28;20237;-71
2023/07/07 08:52:30;;;;;;;9.20;2.38;;;23.80;57.20;;;;;;5052574;28;20286;-71
2023/07/07 08:55:28;;;;;;;4.07;1.70;;;23.60;61.10;;;;;;5052405;28;20197;-71
2023/07/07 08:58:19;;;;;;;3.05;2.30;;;23.20;62.00;;;;;;5052448;28;20291;-71
2023/07/07 09:01:16;;;;;;;5.80;2.30;;;23.10;56.50;;;;;;5052361;28;20205;-71
2023/07/07 09:04:11;;;;;;;3.15;2.20;;;22.90;69.60;;;;;;5052409;28;20246;-71
2023/07/07 09:07:13;;;;;;;4.38;2.05;;;22.60;72.70;;;;;;5052385;28;20205;-71
2023/07/07 09:10:25;;;;;;;5.70;2.30;;;22.70;75.10;;;;;;5052360;28;20265;-71
2023/07/07 09:13:20;;;;;;;5.80;2.33;;;22.80;89.20;;;;;;5052229;28;20272;-71
2023/07/07 09:16:13;;;;;;;5.65;2.38;;;22.70;97.40;;;;;;5052245;28;20588;-71
2023/07/07 09:19:04;;;;;;;7.10;2.50;;;22.80;85.30;;;;;;5052119;28;20457;-71
2023/07/07 09:21:53;;;;;;;4.63;2.72;;;22.90;95.30;;;;;;5052165;28;20564;-71
2023/07/07 09:24:44;;;;;;;8.02;2.58;;;22.80;91.00;;;;;;5052114;28;20668;-72
2023/07/07 09:27:33;;;;;;;6.80;3.00;;;23.30;88.50;;;;;;5055751;28;20343;-72
2023/07/07 09:30:23;;;;;;;7.80;2.83;;;23.80;74.30;;;;;;5056238;28;20200;-71
2023/07/07 09:33:12;;;;;;;8.40;2.50;;;24.10;67.90;;;;;;5056137;28;20284;-72
2023/07/07 09:36:02;;;;;;;5.25;2.88;;;24.40;66.70;;;;;;5056108;28;20224;-72
2023/07/07 09:38:57;;;;;;;4.55;2.25;;;24.90;61.90;;;;;;5055943;28;20597;-71
2023/07/07 09:41:51;;;;;;;3.22;2.28;;;25.40;60.70;;;;;;5056075;28;20196;-71
2023/07/07 09:44:49;;;;;;;4.38;2.15;;;25.20;57.30;;;;;;5056026;28;20201;-71
2023/07/07 09:47:40;;;;;;;6.45;2.25;;;24.90;56.30;;;;;;5070692;28;20205;-71
2023/07/07 09:50:29;;;;;;;5.60;2.20;;;24.90;55.60;;;;;;5075097;28;20353;-71
2023/07/07 09:53:19;;;;;;;4.75;2.45;;;24.80;59.10;;;;;;5075164;28;20197;-71
2023/07/07 09:56:10;;;;;;;4.00;2.40;;;24.60;59.50;;;;;;5075149;28;20225;-71
2023/07/07 09:59:02;;;;;;;6.10;2.30;;;24.40;61.60;;;;;;5074954;28;20212;-71
2023/07/07 10:01:51;;;;;;;4.75;1.98;;;24.30;59.50;;;;;;5075158;28;20200;-71
2023/07/07 10:04:38;;;;;;;5.65;2.40;;;24.50;64.20;;;;;;5075078;28;20727;-71
2023/07/07 10:07:25;;;;;;;6.22;2.40;;;25.10;62.20;;;;;;5074901;28;20203;-71
2023/07/07 10:10:14;;;;;;;3.75;2.38;;;25.60;60.00;;;;;;5074788;28;20207;-71
2023/07/07 10:13:01;;;;;;;4.88;2.40;;;26.30;58.70;;;;;;5074806;28;20193;-72
2023/07/07 10:15:53;;;;;;;3.80;2.30;;;26.90;62.40;;;;;;5075348;28;20208;-71
2023/07/07 10:18:40;;;;;;;4.88;2.13;;;27.40;55.60;;;;;;5074656;28;20239;-71
2023/07/07 10:21:27;;;;;;;4.53;2.00;;;27.70;51.40;;;;;;5074612;28;20727;-71
2023/07/07 10:24:15;;;;;;;4.65;2.03;;;27.80;51.00;;;;;;5075228;28;20200;-71
2023/07/07 10:27:02;;;;;;;4.13;2.38;;;27.90;52.80;;;;;;5074502;28;20200;-71
2023/07/07 10:29:49;;;;;;;3.88;2.13;;;27.70;48.00;;;;;;5074529;28;20564;-71
2023/07/07 10:32:38;;;;;;;3.08;1.90;;;27.30;47.60;;;;;;5074398;28;20201;-71
2023/07/07 10:35:25;;;;;;;5.10;2.03;;;26.90;48.50;;;;;;5074627;28;20197;-71
2023/07/07 10:38:12;;;;;;;5.00;2.10;;;27.00;47.40;;;;;;5073153;28;20221;-70
2023/07/07 10:41:00;;;;;;;5.93;2.15;;;26.70;46.00;;;;;;5074290;28;20189;-71
2023/07/07 10:43:47;;;;;;;2.00;1.70;;;27.40;51.30;;;;;;5074805;28;20199;-71
2023/07/07 10:46:34;;;;;;;4.93;1.95;;;28.10;49.30;;;;;;5068035;28;20276;-71
2023/07/07 10:49:26;;;;;;;3.65;1.90;;;27.80;45.40;;;;;;5054512;28;20229;-71
2023/07/07 10:52:21;;;;;;;11.43;4.72;;;27.00;45.90;;;;;;5054732;28;20212;-71
2023/07/07 10:55:17;;;;;;;6.78;2.95;;;26.30;50.80;;;;;;5054668;28;20215;-71
2023/07/07 10:58:14;;;;;;;8.10;2.85;;;26.10;50.10;;;;;;5054557;28;20689;-71
2023/07/07 11:01:06;;;;;;;4.93;2.80;;;25.70;53.90;;;;;;5054512;28;20193;-71
2023/07/07 11:04:19;;;;;;;9.43;2.38;;;25.70;48.90;;;;;;5054454;28;20675;-71
2023/07/07 11:07:16;;;;;;;4.35;2.10;;;25.90;49.50;;;;;;5053888;28;20635;-71
2023/07/07 11:10:10;;;;;;;5.30;2.22;;;25.90;52.60;;;;;;5054295;28;20197;-71
2023/07/07 11:13:03;;;;;;;2.67;1.92;;;25.60;51.50;;;;;;5054839;28;20201;-71
2023/07/07 11:15:56;;;;;;;4.05;1.73;;;25.10;62.80;;;;;;5053197;28;20254;-71
2023/07/07 11:18:53;;;;;;;2.92;1.70;;;25.10;61.50;;;;;;5054188;28;20232;-70
2023/07/07 11:21:43;;;;;;;2.28;1.50;;;25.00;55.20;;;;;;5054097;28;20197;-71
2023/07/07 11:24:35;;;;;;;7.30;1.77;;;24.40;58.20;;;;;;5054151;28;20668;-71
2023/07/07 11:27:37;;;;;;;6.43;1.80;;;24.30;54.40;;;;;;5053921;28;20575;-70
2023/07/07 11:30:27;;;;;;;3.88;1.77;;;24.00;52.00;;;;;;5054191;28;20201;-70
2023/07/07 11:33:25;;;;;;;3.25;1.67;;;23.70;52.70;;;;;;5053820;28;20250;-70
2023/07/07 11:36:24;;;;;;;3.08;1.70;;;23.90;56.00;;;;;;5053832;28;20220;-70
2023/07/07 11:39:21;;;;;;;3.42;2.10;;;24.00;56.10;;;;;;5053652;28;20263;-70
2023/07/07 11:42:18;;;;;;;8.02;3.20;;;24.10;55.10;;;;;;5053735;28;20599;-71
2023/07/07 11:45:14;;;;;;;5.25;2.63;;;24.40;56.20;;;;;;5053749;28;20281;-71
2023/07/07 11:48:17;;;;;;;4.55;1.80;;;24.70;55.50;;;;;;5071681;28;20601;-71
2023/07/07 11:51:14;;;;;;;5.90;1.77;;;25.00;53.00;;;;;;5072134;28;20698;-71
2023/07/07 11:54:23;;;;;;;3.35;2.10;;;25.60;55.60;;;;;;5073213;28;20651;-70
2023/07/07 11:57:22;;;;;;;5.40;1.90;;;26.40;53.20;;;;;;5073109;28;20647;-71
2023/07/07 12:00:19;;;;;;;3.22;1.73;;;27.10;49.20;;;;;;5073385;28;20248;-70
2023/07/07 12:03:34;;;;;;;4.97;2.00;;;26.60;45.20;;;;;;5072799;28;20687;-70
2023/07/07 12:06:26;;;;;;;3.65;2.20;;;26.10;46.40;;;;;;5072606;28;20294;-71
2023/07/07 12:09:15;;;;;;;5.72;1.92;;;26.40;49.60;;;;;;5072487;28;20203;-70
2023/07/07 12:12:05;;;;;;;3.92;1.95;;;27.40;49.70;;;;;;5072567;28;20208;-69
2023/07/07 12:14:54;;;;;;;2.55;1.83;;;27.40;48.60;;;;;;5073091;28;20243;-69
2023/07/07 12:17:51;;;;;;;6.30;2.22;;;27.30;45.40;;;;;;5072507;28;20213;-70
2023/07/07 12:20:41;;;;;;;6.63;1.95;;;28.00;43.50;;;;;;5072381;28;20221;-70
2023/07/07 12:23:30;;;;;;;4.68;2.22;;;28.50;46.40;;;;;;5072279;28;20199;-70
2023/07/07 12:26:18;;;;;;;4.78;2.10;;;29.20;45.70;;;;;;5072866;28;20687;-69
2023/07/07 12:29:05;;;;;;;3.88;2.00;;;29.10;40.90;;;;;;5072544;28;20196;-69
2023/07/07 12:31:54;;;;;;;4.40;1.80;;;29.20;40.20;;;;;;5072807;28;20230;-70
2023/07/07 12:34:42;;;;;;;2.63;1.70;;;29.30;43.90;;;;;;5072526;28;20207;-69
2023/07/07 12:37:30;;;;;;;3.95;1.42;;;28.80;40.00;;;;;;5071578;28;20605;-70
2023/07/07 12:40:18;;;;;;;4.22;1.85;;;28.30;43.20;;;;;;5072062;28;20224;-70
2023/07/07 12:43:08;;;;;;;3.83;1.88;;;28.00;43.30;;;;;;5072657;28;20245;-70
2023/07/07 12:45:56;;;;;;;3.20;1.90;;;27.70;44.30;;;;;;5071157;28;20205;-70
2023/07/07 12:48:46;;;;;;;7.03;2.15;;;27.40;49.50;;;;;;5052581;28;20700;-70
2023/07/07 12:51:36;;;;;;;3.58;2.00;;;27.00;44.50;;;;;;5052440;28;20205;-70
2023/07/07 12:54:30;;;;;;;4.50;2.30;;;27.00;46.80;;;;;;5053144;28;20237;-70
2023/07/07 12:57:23;;;;;;;3.58;1.88;;;26.70;45.70;;;;;;5052621;28;20591;-69
2023/07/07 13:00:28;;;;;;;3.53;1.88;;;26.90;47.50;;;;;;5051810;28;20295;-70
2023/07/07 13:03:18;;;;;;;3.05;1.75;;;27.60;46.30;;;;;;5052339;28;20201;-69
2023/07/07 13:06:24;;;;;;;6.05;1.90;;;27.90;43.50;;;;;;5052414;28;20668;-69
2023/07/07 13:09:23;;;;;;;2.30;1.80;;;27.90;40.90;;;;;;5052327;28;20770;-69
2023/07/07 13:12:48;;;;;;;2.38;1.70;;;28.20;43.00;;;;;;5052346;28;20284;-69
2023/07/07 13:15:35;;;;;;;4.45;1.60;;;28.60;43.50;;;;;;5015522;28;20209;-69
2023/07/07 13:18:22;;;;;;;3.17;1.80;;;28.10;38.10;;;;;;5052234;28;20229;-70
2023/07/07 13:21:11;;;;;;;2.95;1.70;;;28.00;39.90;;;;;;5052221;28;20299;-69
2023/07/07 13:23:58;;;;;;;5.25;1.75;;;28.00;40.50;;;;;;5052220;28;20208;-69
2023/07/07 13:26:46;;;;;;;4.05;1.70;;;28.40;40.70;;;;;;5052202;28;20201;-69
2023/07/07 13:29:33;;;;;;;3.20;1.58;;;28.80;42.10;;;;;;5052109;28;20208;-69
2023/07/07 13:32:30;;;;;;;5.38;1.65;;;29.10;41.40;;;;;;5050955;28;20608;-69
2023/07/07 13:35:17;;;;;;;4.88;2.00;;;28.70;37.60;;;;;;5052004;28;20197;-69
2023/07/07 13:38:08;;;;;;;3.72;1.70;;;28.50;41.60;;;;;;5052280;28;20654;-69
2023/07/07 13:40:56;;;;;;;3.90;1.70;;;28.00;41.00;;;;;;5051953;28;20292;-70
2023/07/07 13:43:44;;;;;;;3.22;1.67;;;27.30;40.40;;;;;;5052112;28;20561;-70
2023/07/07 13:46:31;;;;;;;4.93;1.73;;;27.20;41.20;;;;;;5057665;28;20192;-70
2023/07/07 13:49:20;;;;;;;4.88;1.90;;;27.00;43.20;;;;;;5071212;28;20306;-69
2023/07/07 13:52:14;;;;;;;3.53;1.77;;;27.10;40.00;;;;;;5071346;28;20208;-70
2023/07/07 13:55:03;;;;;;;5.47;1.90;;;26.50;40.90;;;;;;5071392;28;20687;-70
2023/07/07 13:57:50;;;;;;;3.53;1.50;;;26.30;51.50;;;;;;5071966;28;20664;-70
2023/07/07 14:00:38;;;;;;;3.80;1.80;;;26.00;41.70;;;;;;5071405;28;20216;-70
2023/07/07 14:03:25;;;;;;;2.97;1.60;;;26.40;43.70;;;;;;5071275;28;20214;-69
2023/07/07 14:06:14;;;;;;;2.47;1.60;;;26.40;41.00;;;;;;5071356;28;20204;-68
2023/07/07 14:09:02;;;;;;;3.03;1.77;;;26.80;45.90;;;;;;5071380;28;20757;-68
2023/07/07 14:11:53;;;;;;;2.45;1.60;;;27.60;41.10;;;;;;5071881;28;20223;-69
2023/07/07 14:14:41;;;;;;;3.10;1.70;;;27.60;40.50;;;;;;5074774;28;20231;-68
2023/07/07 14:17:30;;;;;;;4.82;1.80;;;28.10;41.20;;;;;;5075291;28;20197;-70
2023/07/07 14:20:20;;;;;;;4.95;1.63;;;28.00;42.70;;;;;;5075284;28;20216;-70
2023/07/07 14:23:09;;;;;;;3.80;1.67;;;27.90;42.70;;;;;;5074592;28;20235;-70
2023/07/07 14:25:57;;;;;;;3.47;1.75;;;27.80;42.90;;;;;;5074550;28;20270;-69
2023/07/07 14:28:46;;;;;;;3.13;1.60;;;28.00;42.80;;;;;;5075161;28;20281;-69
2023/07/07 14:31:33;;;;;;;5.85;1.80;;;28.10;44.60;;;;;;5075083;28;20224;-70
2023/07/07 14:34:20;;;;;;;4.05;1.67;;;27.80;42.40;;;;;;5074511;28;20254;-69
2023/07/07 14:37:14;;;;;;;2.50;1.60;;;28.00;43.00;;;;;;5074427;28;20223;-69
2023/07/07 14:40:21;;;;;;;2.47;1.45;;;28.50;41.60;;;;;;5074168;28;20228;-69